SBKPHKJK

Guest
Details From SBKP - Sao Paulo Viracopos
To HKJK - Nairobi Jomo Kanyatta Intl
Flight Number -
Tags Generated
Created
Modified
Stats Distance 5,046 nm / 9,345 km
Max Altitude 0 ft / 0 m
Waypoints 5
Social Downloads 1
Likes 0
Share VATSIM

Download

Looking for another format? Having issues loading an existing format? Contact us
Advertisement - Login to hide

Notes

Generated

Route

SBKP PP LIRAM R1659 HKJK

ID Type Via Altitude Latitude Longitude Leg Dist Tot Dist Heading (true) Name
O SBKP APT - 0 ft / 0 m -22.99843˚ -47.14702˚ - 0 nm - -
PP NDB - 0 ft / 0 m -22.87017˚ -43.16517˚ 220 nm 220 nm 89° / 87° PAIOL NDB
LIRAM FIX - 0 ft / 0 m -10.83333˚ 13.33000˚ 3307 nm 3527 nm 87° / 70° -
R1659 FIX - 0 ft / 0 m -1.32759˚ 36.91636˚ 1518 nm 5045 nm 70° / 67° -
O HKJK APT - 0 ft / 0 m -1.32774˚ 36.91612˚ 0 nm 5045 nm 238° / 238° -

Altitude Profile

Advertisement - Login to hide

Weather


0- 5 10 15 20 25 30 35+ Temperature / ° C

Clouds and Precipitation
Forecast for 2018-05-27 18:00 UTC. Updated 3 hours ago

Ground ~20,000 ft ~40,000 ft Winds

SBKP

Details ICAO SBKP (VCP)
Name Sao Paulo Viracopos
Region Brazil
Timezone America/Sao_Paulo (UTC-3.0)
Stats Elevation 2,170 ft / 661 m (AMSL)
Location -23.007383° -47.134522°
Runways 1
Magnetic Variation 21.250° W

METAR

SBKP 272000Z 16009KT CAVOK 24/07 Q1023

Decode

TAF

TAF SBKP 271624Z 2718/2818 13008KT 9999 SCT040TX25/2718Z TN13/2808Z BECMG 2719/2721 CAVOK PROB40 2809/2811 5000 BR NSC BECMG 2812/2814 05005KT PROB30 2815/2818 21005KT 9999 SCT040 RMK PGO

Decode

Departure Runways

ID Width Length Bearing (true) Bearing (mag) Surface Threshold Offset Overrun Length
15 148 ft / 45 m 10,639 ft / 3,243 m 127.91° 149.16° Asphalt 0 ft / 0 m 205 ft / 62 m
33 148 ft / 45 m 10,639 ft / 3,243 m 307.90° 329.15° Asphalt 0 ft / 0 m 205 ft / 62 m

HKJK

Details ICAO HKJK (NBO)
Name Nairobi Jomo Kanyatta Intl
Region Kenya
Timezone Africa/Nairobi (UTC+3.0)
Stats Elevation 5,330 ft / 1,625 m (AMSL)
Location -1.317073° 36.930757°
Runways 1
Magnetic Variation 0.591° E

METAR

HKJK 271930Z 23007KT CAVOK 17/15 Q1024

Decode

TAF

TAF TAF HKJK 271700Z 2718/2824 16010KT 9999 FEW008 SCT018 BECMG 2808/2811 20010KT BKN025

Decode

Destination Runways

ID Width Length Bearing (true) Bearing (mag) Surface Threshold Offset Overrun Length
06 148 ft / 45 m 13,215 ft / 4,028 m 53.90° 53.31° Asphalt 0 ft / 0 m 194 ft / 59 m
24 148 ft / 45 m 13,215 ft / 4,028 m 233.90° 233.31° Asphalt 0 ft / 0 m 197 ft / 60 m

Approach Navaids

Runway Type Ident Frequency Range Bearing (true) Bearing (mag) Slope Elevation
06 Localiser INL 110.30 MHz 18 nm / 33 km 53.84° 53.25° - 5,278 ft / 1,609 m (AMSL)
06 Glidescope INL 110.30 MHz 10 nm / 19 km 53.90° 53.31° 3.00° 5,343 ft / 1,629 m (AMSL)